Time;durP1;ratioP1;P1;durP2;ratioP2;P2;SDS_P1;SDS_P2;PMS_P1;PMS_P2;Temp;Humidity;BMP_temperature;BMP_pressure;BME280_temperature;BME280_humidity;BME280_pressure;Samples;Min_cycle;Max_cycle;Signal;HPM_P1;HPM_P2
2022/10/14 00:00:15;;;;;;;28.15;22.05;;;12.00;99.90;;;;;;5096136;28;20506;-67
2022/10/14 00:02:40;;;;;;;28.30;21.23;;;12.00;99.90;;;;;;5092091;28;20035;-67
2022/10/14 00:05:08;;;;;;;31.58;22.27;;;12.00;99.90;;;;;;5102435;28;20023;-67
2022/10/14 00:07:33;;;;;;;36.58;25.42;;;11.90;99.90;;;;;;5092924;28;20084;-67
2022/10/14 00:09:59;;;;;;;36.55;23.52;;;11.90;99.90;;;;;;5106037;28;20023;-67
2022/10/14 00:12:25;;;;;;;28.55;22.10;;;11.90;99.90;;;;;;5111375;28;20023;-67
2022/10/14 00:14:50;;;;;;;30.45;21.75;;;11.90;99.90;;;;;;5091949;28;20145;-68
2022/10/14 00:17:16;;;;;;;30.27;22.80;;;11.90;99.90;;;;;;5093251;28;20123;-67
2022/10/14 00:19:41;;;;;;;33.20;22.63;;;11.90;99.90;;;;;;5108117;28;20482;-67
2022/10/14 00:22:08;;;;;;;30.13;21.95;;;11.90;99.90;;;;;;5105145;28;20020;-67
2022/10/14 00:24:33;;;;;;;29.77;21.80;;;11.90;99.90;;;;;;5094649;28;20028;-68
2022/10/14 00:27:00;;;;;;;29.83;21.27;;;11.90;99.90;;;;;;5092160;28;20130;-68
2022/10/14 00:29:28;;;;;;;31.38;23.15;;;11.80;99.90;;;;;;5098086;28;20073;-67
2022/10/14 00:31:53;;;;;;;28.33;21.33;;;11.80;99.90;;;;;;5107794;28;20044;-68
2022/10/14 00:34:20;;;;;;;30.48;21.38;;;11.80;99.90;;;;;;5098708;28;20036;-68
2022/10/14 00:36:47;;;;;;;29.27;21.58;;;11.80;99.90;;;;;;5106434;28;20379;-68
2022/10/14 00:39:12;;;;;;;31.65;21.23;;;11.80;99.90;;;;;;5103126;28;20035;-68
2022/10/14 00:41:39;;;;;;;29.70;20.45;;;11.70;99.90;;;;;;5092468;28;20032;-68
2022/10/14 00:44:13;;;;;;;29.27;20.20;;;11.80;99.90;;;;;;5100891;28;20035;-68
2022/10/14 00:46:41;;;;;;;28.33;20.50;;;11.70;99.90;;;;;;5072662;28;20052;-68
2022/10/14 00:49:17;;;;;;;29.20;20.90;;;11.70;99.90;;;;;;5100248;28;20602;-68
2022/10/14 00:51:49;;;;;;;32.08;19.77;;;11.70;99.90;;;;;;5090478;28;20522;-67
2022/10/14 00:54:17;;;;;;;26.85;20.80;;;11.70;99.90;;;;;;5102347;28;20039;-68
2022/10/14 00:56:44;;;;;;;27.42;19.63;;;11.70;99.90;;;;;;5092830;28;20036;-68
2022/10/14 00:59:11;;;;;;;30.30;20.80;;;11.70;99.90;;;;;;5088792;28;20028;-68
2022/10/14 01:01:36;;;;;;;29.92;20.85;;;11.70;99.90;;;;;;5072571;28;20029;-68
2022/10/14 01:04:02;;;;;;;32.60;20.15;;;11.60;99.90;;;;;;5089564;28;20466;-68
2022/10/14 01:06:39;;;;;;;29.33;19.38;;;11.60;99.90;;;;;;5100735;28;20027;-68
2022/10/14 01:09:18;;;;;;;25.88;18.55;;;11.60;99.90;;;;;;5098404;28;20045;-69
2022/10/14 01:11:46;;;;;;;26.05;18.83;;;11.60;99.90;;;;;;5106869;28;20016;-67
2022/10/14 01:14:35;;;;;;;25.48;19.45;;;11.60;99.90;;;;;;5097024;28;20035;-69
2022/10/14 01:17:15;;;;;;;27.70;19.88;;;11.60;99.90;;;;;;5095999;28;20640;-67
2022/10/14 01:20:04;;;;;;;23.67;17.52;;;11.50;99.90;;;;;;5094254;28;20031;-68
2022/10/14 01:22:43;;;;;;;28.27;19.33;;;11.50;99.90;;;;;;5090823;28;20067;-68
2022/10/14 01:25:15;;;;;;;27.40;20.30;;;11.40;99.90;;;;;;5101664;28;20036;-68
2022/10/14 01:27:46;;;;;;;28.23;19.58;;;11.40;99.90;;;;;;5089679;28;20055;-67
2022/10/14 01:30:48;;;;;;;25.98;19.55;;;11.40;99.90;;;;;;5100318;28;20098;-68
2022/10/14 01:33:24;;;;;;;25.95;18.70;;;11.40;99.90;;;;;;5103271;28;20047;-67
2022/10/14 01:35:53;;;;;;;24.83;19.25;;;11.40;99.90;;;;;;5100175;28;20043;-67
2022/10/14 01:38:30;;;;;;;27.08;20.33;;;11.40;99.90;;;;;;5110676;28;20020;-67
2022/10/14 01:41:06;;;;;;;23.73;18.35;;;11.30;99.90;;;;;;5097969;28;20032;-68
2022/10/14 01:43:34;;;;;;;25.98;19.83;;;11.30;99.90;;;;;;5090661;28;20024;-68
2022/10/14 01:46:03;;;;;;;25.50;19.85;;;11.30;99.90;;;;;;5103694;28;20070;-68
2022/10/14 01:48:32;;;;;;;25.42;19.13;;;11.30;99.90;;;;;;5088147;28;20382;-67
2022/10/14 01:51:01;;;;;;;29.58;19.48;;;11.30;99.90;;;;;;5089334;28;20031;-67
2022/10/14 01:53:49;;;;;;;28.60;20.20;;;11.30;99.90;;;;;;5091677;28;20502;-67
2022/10/14 01:56:16;;;;;;;28.63;20.60;;;11.30;99.90;;;;;;5089785;28;20096;-67
2022/10/14 01:58:43;;;;;;;30.75;19.30;;;11.30;99.90;;;;;;5088477;28;20020;-67
2022/10/14 02:01:10;;;;;;;27.17;20.88;;;11.30;99.90;;;;;;5098775;28;20067;-68
2022/10/14 02:03:41;;;;;;;26.48;19.02;;;11.30;99.90;;;;;;5092368;28;20028;-68
2022/10/14 02:06:23;;;;;;;28.13;19.20;;;11.30;99.90;;;;;;5100821;28;20028;-68
2022/10/14 02:09:13;;;;;;;25.42;18.55;;;11.30;99.90;;;;;;5090792;28;20056;-68
2022/10/14 02:11:57;;;;;;;25.05;18.92;;;11.30;99.90;;;;;;5104247;28;20106;-68
2022/10/14 02:14:50;;;;;;;27.75;18.42;;;11.20;99.90;;;;;;5095738;28;20081;-67
2022/10/14 02:17:31;;;;;;;25.77;19.50;;;11.20;99.90;;;;;;5099839;28;20035;-67
2022/10/14 02:20:05;;;;;;;24.85;19.23;;;11.20;99.90;;;;;;5093013;28;20031;-68
2022/10/14 02:22:40;;;;;;;27.42;20.17;;;11.10;99.90;;;;;;5102963;28;20036;-67
2022/10/14 02:25:14;;;;;;;24.67;19.23;;;11.20;99.90;;;;;;5104408;28;20034;-68
2022/10/14 02:27:42;;;;;;;24.08;18.90;;;11.10;99.90;;;;;;5097931;28;20076;-68
2022/10/14 02:30:09;;;;;;;28.33;18.88;;;11.10;99.90;;;;;;5095822;28;20080;-67
2022/10/14 02:32:36;;;;;;;25.67;19.20;;;11.10;99.90;;;;;;5092491;28;20051;-66
2022/10/14 02:35:04;;;;;;;25.33;19.42;;;11.10;99.90;;;;;;5091873;28;20045;-68
2022/10/14 02:37:32;;;;;;;25.55;18.95;;;11.10;99.90;;;;;;5099734;28;20032;-67
2022/10/14 02:40:06;;;;;;;28.25;18.52;;;11.10;99.90;;;;;;5107170;28;20031;-68
2022/10/14 02:42:32;;;;;;;;;;;11.10;99.90;;;;;;5107731;28;20023;-68
2022/10/14 02:44:59;;;;;;;23.00;17.23;;;11.10;99.90;;;;;;5102940;28;19904;-67
2022/10/14 02:47:25;;;;;;;24.23;16.77;;;11.10;99.90;;;;;;5088779;28;20103;-67
2022/10/14 02:49:51;;;;;;;26.30;16.17;;;11.10;99.90;;;;;;5075062;28;20051;-67
2022/10/14 02:52:17;;;;;;;26.15;17.05;;;11.10;99.90;;;;;;5091775;28;20028;-67
2022/10/14 02:54:43;;;;;;;25.80;17.55;;;11.10;99.90;;;;;;5074570;28;20039;-68
2022/10/14 02:57:09;;;;;;;20.83;16.77;;;11.10;99.90;;;;;;5093843;28;20110;-68
2022/10/14 02:59:34;;;;;;;23.40;16.75;;;11.10;99.90;;;;;;5103538;28;20118;-68
2022/10/14 03:02:00;;;;;;;21.77;15.75;;;11.20;99.90;;;;;;5097076;28;20452;-68
2022/10/14 03:04:26;;;;;;;27.63;18.50;;;11.30;99.90;;;;;;5102080;28;20028;-68
2022/10/14 03:06:52;;;;;;;21.02;15.60;;;11.30;99.90;;;;;;5103938;28;20440;-68
2022/10/14 03:09:19;;;;;;;21.15;15.57;;;11.30;99.90;;;;;;5091352;28;20032;-68
2022/10/14 03:11:44;;;;;;;22.40;16.35;;;11.30;99.90;;;;;;5096436;28;20578;-68
2022/10/14 03:14:11;;;;;;;25.75;17.40;;;11.40;99.90;;;;;;5100089;28;20115;-68
2022/10/14 03:16:36;;;;;;;23.00;15.00;;;11.40;99.90;;;;;;5092351;28;20032;-68
2022/10/14 03:19:02;;;;;;;25.92;16.42;;;11.40;99.90;;;;;;5095011;28;20024;-68
2022/10/14 03:21:28;;;;;;;22.55;16.08;;;11.40;99.90;;;;;;5097283;28;20028;-68
2022/10/14 03:23:53;;;;;;;22.05;15.50;;;11.40;99.90;;;;;;5104388;28;20024;-68
2022/10/14 03:26:19;;;;;;;22.33;15.90;;;11.40;99.90;;;;;;5107987;28;20429;-68
2022/10/14 03:28:44;;;;;;;20.08;15.23;;;11.50;99.90;;;;;;5094296;28;20537;-68
2022/10/14 03:31:11;;;;;;;24.48;15.68;;;11.50;99.90;;;;;;5106842;28;20024;-68
2022/10/14 03:33:36;;;;;;;22.13;15.95;;;11.50;99.90;;;;;;5093668;28;20051;-69
2022/10/14 03:36:03;;;;;;;22.50;17.13;;;11.50;99.90;;;;;;5100652;28;20040;-69
2022/10/14 03:38:28;;;;;;;23.17;15.60;;;11.50;99.90;;;;;;5092793;28;20028;-68
2022/10/14 03:40:54;;;;;;;21.55;15.85;;;11.60;99.90;;;;;;5098434;28;20039;-67
2022/10/14 03:43:19;;;;;;;23.02;15.60;;;11.60;99.90;;;;;;5105295;28;20027;-68
2022/10/14 03:45:51;;;;;;;20.00;14.57;;;11.60;99.90;;;;;;5104267;28;20028;-68
2022/10/14 03:48:16;;;;;;;21.75;16.05;;;11.60;99.90;;;;;;5100192;28;20028;-68
2022/10/14 03:50:42;;;;;;;22.50;16.20;;;11.60;99.90;;;;;;5103192;28;20107;-67
2022/10/14 03:53:08;;;;;;;24.67;16.60;;;11.60;99.90;;;;;;5095638;28;20114;-68
2022/10/14 03:55:33;;;;;;;24.10;15.85;;;11.60;99.90;;;;;;5096445;28;20552;-69
2022/10/14 03:57:59;;;;;;;20.85;16.65;;;11.50;99.90;;;;;;5098004;28;20725;-68
2022/10/14 04:00:24;;;;;;;22.48;16.48;;;11.50;99.90;;;;;;5083844;28;20078;-68
2022/10/14 04:02:50;;;;;;;24.00;16.15;;;11.50;99.90;;;;;;5098954;28;20051;-68
2022/10/14 04:05:16;;;;;;;21.00;15.60;;;11.50;99.90;;;;;;5111445;28;20086;-68
2022/10/14 04:07:41;;;;;;;23.25;16.35;;;11.50;99.90;;;;;;5099459;28;20495;-68
2022/10/14 04:10:08;;;;;;;25.23;16.85;;;11.40;99.90;;;;;;5102262;28;20036;-68
2022/10/14 04:12:33;;;;;;;25.15;15.68;;;11.40;99.90;;;;;;5092842;28;20043;-68
2022/10/14 04:15:00;;;;;;;21.17;15.60;;;11.40;99.90;;;;;;5107831;28;20490;-69
2022/10/14 04:17:26;;;;;;;20.67;15.85;;;11.40;99.90;;;;;;5093489;28;20098;-69
2022/10/14 04:19:53;;;;;;;21.77;14.80;;;11.40;99.90;;;;;;5107414;28;20041;-68
2022/10/14 04:22:18;;;;;;;21.00;16.10;;;11.40;99.90;;;;;;5094367;28;20047;-68
2022/10/14 04:24:44;;;;;;;18.85;14.13;;;11.40;99.90;;;;;;5092101;28;20436;-68
2022/10/14 04:27:10;;;;;;;19.60;14.52;;;11.40;99.90;;;;;;5092821;28;20055;-69
2022/10/14 04:29:35;;;;;;;19.23;14.95;;;11.30;99.90;;;;;;5097417;28;20062;-68
2022/10/14 04:32:01;;;;;;;20.42;15.02;;;11.30;99.90;;;;;;5103368;28;20058;-69
2022/10/14 04:34:26;;;;;;;19.83;15.93;;;11.30;99.90;;;;;;5100775;28;20032;-68
2022/10/14 04:36:52;;;;;;;21.98;16.33;;;11.30;99.90;;;;;;5091634;28;20113;-68
2022/10/14 04:39:18;;;;;;;21.40;14.60;;;11.20;99.90;;;;;;5095835;28;20024;-68
2022/10/14 04:41:44;;;;;;;21.05;15.07;;;11.20;99.90;;;;;;5113559;28;20024;-68
2022/10/14 04:44:10;;;;;;;18.55;14.23;;;11.20;99.90;;;;;;5104945;28;20077;-68
2022/10/14 04:46:35;;;;;;;20.58;14.13;;;11.20;99.90;;;;;;5091754;28;20055;-68
2022/10/14 04:49:01;;;;;;;20.27;15.25;;;11.20;99.90;;;;;;5094391;28;20310;-68
2022/10/14 04:51:27;;;;;;;21.70;14.77;;;11.20;99.90;;;;;;5095657;28;20612;-68
2022/10/14 04:53:52;;;;;;;22.10;16.02;;;11.20;99.90;;;;;;5105514;28;20024;-68
2022/10/14 04:56:18;;;;;;;20.50;14.32;;;11.20;99.90;;;;;;5091985;28;20031;-68
2022/10/14 04:58:43;;;;;;;20.83;15.80;;;11.20;99.90;;;;;;5094365;28;20043;-69
2022/10/14 05:01:09;;;;;;;23.08;14.95;;;11.20;99.90;;;;;;5109149;28;20368;-69
2022/10/14 05:03:34;;;;;;;19.27;14.85;;;11.20;99.90;;;;;;5107943;28;20115;-68
2022/10/14 05:06:00;;;;;;;22.90;15.43;;;11.30;99.90;;;;;;5102441;28;20024;-69
2022/10/14 05:08:26;;;;;;;21.65;15.35;;;11.30;99.90;;;;;;5085587;28;20434;-68
2022/10/14 05:10:51;;;;;;;20.98;14.95;;;11.30;99.90;;;;;;5077747;28;20446;-68
2022/10/14 05:13:17;;;;;;;21.45;15.23;;;11.30;99.90;;;;;;5070467;28;20020;-68
2022/10/14 05:15:43;;;;;;;20.80;14.45;;;11.40;99.90;;;;;;5090923;28;20040;-68
2022/10/14 05:18:10;;;;;;;22.45;15.00;;;11.40;99.90;;;;;;5091159;28;20107;-69
2022/10/14 05:20:37;;;;;;;23.85;16.00;;;11.40;99.90;;;;;;5095136;28;20028;-69
2022/10/14 05:23:03;;;;;;;21.85;14.65;;;11.40;99.90;;;;;;5092073;28;20024;-68
2022/10/14 05:25:28;;;;;;;19.17;14.45;;;11.50;99.90;;;;;;5091258;28;20101;-68
2022/10/14 05:27:54;;;;;;;20.00;15.10;;;11.50;99.90;;;;;;5095112;28;20109;-68
2022/10/14 05:30:19;;;;;;;19.23;14.45;;;11.50;99.90;;;;;;5089933;28;20034;-68
2022/10/14 05:32:45;;;;;;;23.13;15.35;;;11.50;99.90;;;;;;5091745;28;20158;-68
2022/10/14 05:35:11;;;;;;;22.83;15.38;;;11.50;99.90;;;;;;5091292;28;20126;-68
2022/10/14 05:37:36;;;;;;;18.52;14.35;;;11.50;99.90;;;;;;5099802;28;20027;-67
2022/10/14 05:40:02;;;;;;;23.05;16.42;;;11.50;99.90;;;;;;5093218;28;20031;-68
2022/10/14 05:42:28;;;;;;;19.17;13.57;;;11.60;99.90;;;;;;5101238;28;20027;-68
2022/10/14 05:44:54;;;;;;;24.98;15.70;;;11.70;99.90;;;;;;5096356;28;20081;-68
2022/10/14 05:47:19;;;;;;;24.13;15.77;;;11.70;99.90;;;;;;5090871;28;20422;-68
2022/10/14 05:49:46;;;;;;;22.25;15.85;;;11.70;99.90;;;;;;5091316;28;20109;-68
2022/10/14 05:52:12;;;;;;;21.33;15.93;;;11.70;99.90;;;;;;5091943;28;20020;-69
2022/10/14 05:54:37;;;;;;;23.70;16.45;;;11.80;99.90;;;;;;5092164;28;20131;-69
2022/10/14 05:57:03;;;;;;;25.60;15.45;;;11.80;99.90;;;;;;5090257;28;20028;-71
2022/10/14 05:59:29;;;;;;;25.38;16.55;;;11.90;99.90;;;;;;5083478;28;20055;-69
2022/10/14 06:01:55;;;;;;;20.92;15.25;;;11.90;99.90;;;;;;5091818;28;20049;-70
2022/10/14 06:04:21;;;;;;;20.85;14.65;;;11.90;99.90;;;;;;5099463;28;20510;-70
2022/10/14 06:06:47;;;;;;;19.95;14.32;;;12.00;99.90;;;;;;5088858;28;20081;-69
2022/10/14 06:09:14;;;;;;;22.05;15.45;;;12.00;99.90;;;;;;5094248;28;20024;-69
2022/10/14 06:11:40;;;;;;;22.20;15.05;;;12.10;99.90;;;;;;5090375;28;20035;-69
2022/10/14 06:14:06;;;;;;;22.38;15.25;;;12.10;99.90;;;;;;5103257;28;20027;-71
2022/10/14 06:16:34;;;;;;;21.60;15.70;;;12.20;99.90;;;;;;5102473;28;20032;-70
2022/10/14 06:19:00;;;;;;;22.40;14.70;;;12.20;99.90;;;;;;5095553;28;20102;-70
2022/10/14 06:21:26;;;;;;;20.27;13.90;;;12.20;99.90;;;;;;5110550;28;20448;-70
2022/10/14 06:23:51;;;;;;;23.05;16.77;;;12.30;99.90;;;;;;5100842;28;20023;-70
2022/10/14 06:26:18;;;;;;;21.20;14.85;;;12.30;99.90;;;;;;5101609;28;20107;-70
2022/10/14 06:28:45;;;;;;;21.65;15.23;;;12.30;99.90;;;;;;5088639;28;20558;-70
2022/10/14 06:31:10;;;;;;;23.60;15.65;;;12.30;99.90;;;;;;5101021;28;20019;-70
2022/10/14 06:33:36;;;;;;;24.42;15.32;;;12.40;99.90;;;;;;5098088;28;20513;-70
2022/10/14 06:36:03;;;;;;;23.35;15.93;;;12.40;99.90;;;;;;5093662;28;20031;-70
2022/10/14 06:38:29;;;;;;;20.92;15.70;;;12.50;99.90;;;;;;5088363;28;20047;-70
2022/10/14 06:40:54;;;;;;;22.48;15.50;;;12.50;99.90;;;;;;5111335;28;20059;-69
2022/10/14 06:43:21;;;;;;;20.98;14.82;;;12.60;99.90;;;;;;5099649;28;20506;-69
2022/10/14 06:45:47;;;;;;;19.85;15.48;;;12.60;99.90;;;;;;5082357;28;20112;-68
2022/10/14 06:48:13;;;;;;;24.25;16.00;;;12.60;99.90;;;;;;5101152;28;20374;-68
2022/10/14 06:50:40;;;;;;;20.20;15.40;;;12.70;99.90;;;;;;5110244;28;20028;-68
2022/10/14 06:53:06;;;;;;;23.75;16.52;;;12.70;99.90;;;;;;5085214;28;20040;-69
2022/10/14 06:55:32;;;;;;;22.33;15.50;;;12.80;99.90;;;;;;5097530;28;20044;-68
2022/10/14 06:57:57;;;;;;;20.17;14.48;;;12.80;99.90;;;;;;5092888;28;20121;-69
2022/10/14 07:00:23;;;;;;;22.02;16.33;;;12.80;99.90;;;;;;5099428;28;20484;-68
2022/10/14 07:02:49;;;;;;;20.55;15.07;;;12.90;99.90;;;;;;5100917;28;20566;-68
2022/10/14 07:05:14;;;;;;;24.17;16.45;;;13.00;99.90;;;;;;5102468;28;20019;-68
2022/10/14 07:07:40;;;;;;;23.73;16.27;;;13.00;99.90;;;;;;5091957;28;20437;-68
2022/10/14 07:10:06;;;;;;;21.83;14.90;;;13.00;99.90;;;;;;5087921;28;20020;-68
2022/10/14 07:12:33;;;;;;;19.98;14.77;;;13.10;99.90;;;;;;5091339;28;20028;-71
2022/10/14 07:14:59;;;;;;;25.63;15.07;;;13.20;99.90;;;;;;5101238;28;20042;-69
2022/10/14 07:17:24;;;;;;;23.90;15.65;;;13.20;99.90;;;;;;5091798;28;20024;-68
2022/10/14 07:19:50;;;;;;;22.20;14.88;;;13.30;99.90;;;;;;5099943;28;20362;-68
2022/10/14 07:22:16;;;;;;;21.52;14.90;;;13.30;99.90;;;;;;5094965;28;20035;-69
2022/10/14 07:24:42;;;;;;;21.63;15.05;;;13.40;99.90;;;;;;5098060;28;20020;-68
2022/10/14 07:27:09;;;;;;;19.38;14.55;;;13.40;99.90;;;;;;5104405;28;20028;-69
2022/10/14 07:29:34;;;;;;;23.73;15.90;;;13.50;99.90;;;;;;5082535;28;20565;-69
2022/10/14 07:32:00;;;;;;;19.85;14.27;;;13.60;99.90;;;;;;5099912;28;20117;-69
2022/10/14 07:34:26;;;;;;;20.75;14.85;;;13.60;99.90;;;;;;5093617;28;20093;-69
2022/10/14 07:36:51;;;;;;;20.15;15.18;;;13.70;99.90;;;;;;5105409;28;20110;-69
2022/10/14 07:39:17;;;;;;;22.55;14.40;;;13.80;99.90;;;;;;5095154;28;20111;-69
2022/10/14 07:41:44;;;;;;;22.10;15.25;;;13.80;99.90;;;;;;5091021;28;20463;-70
2022/10/14 07:44:12;;;;;;;25.35;15.30;;;13.90;99.90;;;;;;5095503;28;20027;-70
2022/10/14 07:46:41;;;;;;;21.77;15.82;;;14.00;99.90;;;;;;5094998;28;20107;-69
2022/10/14 07:49:09;;;;;;;19.80;13.65;;;14.00;99.90;;;;;;5093878;28;20036;-69
2022/10/14 07:51:35;;;;;;;20.98;15.70;;;14.10;99.90;;;;;;5093399;28;20395;-69
2022/10/14 07:54:03;;;;;;;18.20;14.43;;;14.20;99.90;;;;;;5093170;28;20071;-70
2022/10/14 07:56:28;;;;;;;32.60;17.60;;;14.20;99.90;;;;;;5092682;28;20043;-69
2022/10/14 07:58:55;;;;;;;20.50;14.93;;;14.30;99.90;;;;;;5098929;28;20019;-69
2022/10/14 08:01:20;;;;;;;19.80;15.10;;;14.30;99.90;;;;;;5105273;27;20384;-69
2022/10/14 08:03:48;;;;;;;21.45;15.10;;;14.30;99.90;;;;;;5094079;28;20021;-69
2022/10/14 08:06:14;;;;;;;19.75;15.05;;;14.40;99.90;;;;;;5095672;28;20020;-68
2022/10/14 08:08:41;;;;;;;21.35;16.25;;;14.40;99.90;;;;;;5093055;28;20028;-69
2022/10/14 08:11:11;;;;;;;23.25;15.90;;;14.50;99.90;;;;;;5093474;28;20038;-69
2022/10/14 08:13:38;;;;;;;23.30;15.00;;;14.50;99.90;;;;;;5093266;28;20123;-68
2022/10/14 08:16:16;;;;;;;19.98;15.75;;;14.60;99.90;;;;;;5089634;28;20044;-68
2022/10/14 08:18:43;;;;;;;22.55;15.45;;;14.70;99.90;;;;;;5089698;28;20031;-68
2022/10/14 08:21:08;;;;;;;19.92;14.05;;;14.70;99.90;;;;;;5090183;28;20023;-71
2022/10/14 08:23:34;;;;;;;22.25;15.43;;;14.70;99.90;;;;;;5093612;28;20394;-68
2022/10/14 08:26:00;;;;;;;21.13;15.77;;;14.80;99.90;;;;;;5104694;28;20030;-68
2022/10/14 08:28:25;;;;;;;20.48;15.55;;;14.90;99.90;;;;;;5107222;28;20042;-68
2022/10/14 08:30:52;;;;;;;23.35;16.02;;;14.90;99.90;;;;;;5095110;28;20027;-68
2022/10/14 08:33:18;;;;;;;21.60;15.50;;;15.00;99.90;;;;;;5092241;28;20079;-68
2022/10/14 08:35:44;;;;;;;21.75;16.00;;;15.00;99.90;;;;;;5097852;28;20035;-68
2022/10/14 08:38:10;;;;;;;22.52;16.00;;;15.00;99.90;;;;;;5098742;28;20032;-68
2022/10/14 08:40:57;;;;;;;22.95;16.70;;;15.00;99.90;;;;;;5091584;28;20028;-68
2022/10/14 08:43:40;;;;;;;21.45;16.98;;;15.10;99.90;;;;;;5089781;28;20103;-69
2022/10/14 08:46:34;;;;;;;26.85;17.05;;;15.10;99.90;;;;;;5113752;27;20028;-68
2022/10/14 08:49:27;;;;;;;24.95;16.45;;;15.20;99.90;;;;;;5107005;28;20020;-68
2022/10/14 08:52:19;;;;;;;23.92;15.02;;;15.20;99.90;;;;;;5094174;28;20020;-69
2022/10/14 08:54:50;;;;;;;23.00;16.35;;;15.20;99.90;;;;;;5086222;28;20044;-69
2022/10/14 08:57:21;;;;;;;23.02;16.30;;;15.30;99.90;;;;;;5111432;28;20036;-68
2022/10/14 08:59:47;;;;;;;22.52;16.38;;;15.30;99.90;;;;;;5096056;28;20035;-68
2022/10/14 09:02:28;;;;;;;23.75;16.17;;;15.30;99.90;;;;;;5095128;28;20062;-69
2022/10/14 09:04:55;;;;;;;22.77;15.68;;;15.40;99.90;;;;;;5089816;28;20043;-71
2022/10/14 09:07:21;;;;;;;24.20;16.52;;;15.40;99.90;;;;;;5104958;28;20030;-70
2022/10/14 09:09:53;;;;;;;20.92;15.98;;;15.50;99.90;;;;;;5087593;28;20039;-71
2022/10/14 09:12:29;;;;;;;19.83;14.38;;;15.60;99.90;;;;;;5098255;28;20051;-71
2022/10/14 09:15:21;;;;;;;21.10;15.02;;;15.70;99.90;;;;;;5090998;28;20043;-70
2022/10/14 09:18:11;;;;;;;24.25;15.63;;;15.70;99.90;;;;;;5072535;28;20035;-69
2022/10/14 09:20:38;;;;;;;22.20;16.13;;;15.80;99.90;;;;;;5087939;28;20024;-69
2022/10/14 09:23:04;;;;;;;22.70;15.45;;;15.80;99.90;;;;;;5084473;28;20039;-71
2022/10/14 09:25:33;;;;;;;22.67;15.30;;;15.90;99.90;;;;;;5091163;28;20020;-70
2022/10/14 09:27:58;;;;;;;25.17;15.80;;;15.90;99.90;;;;;;5092555;28;20077;-71
2022/10/14 09:30:24;;;;;;;18.83;14.27;;;16.00;99.90;;;;;;5089043;28;20491;-70
2022/10/14 09:32:52;;;;;;;23.63;15.25;;;16.00;99.90;;;;;;5092029;28;20044;-70
2022/10/14 09:35:40;;;;;;;18.17;13.85;;;16.00;99.90;;;;;;5094145;28;20035;-71
2022/10/14 09:38:06;;;;;;;26.83;15.73;;;16.10;99.90;;;;;;5092651;28;20029;-71
2022/10/14 09:40:41;;;;;;;25.73;14.85;;;16.10;99.90;;;;;;5093212;28;20024;-71
2022/10/14 09:43:09;;;;;;;19.55;13.73;;;16.10;99.90;;;;;;5090297;28;20054;-68
2022/10/14 09:45:47;;;;;;;20.35;14.27;;;16.20;99.90;;;;;;5084201;28;20024;-70
2022/10/14 09:48:33;;;;;;;23.88;14.82;;;16.20;99.80;;;;;;5111950;28;20028;-70
2022/10/14 09:51:01;;;;;;;26.27;15.85;;;16.20;99.80;;;;;;5088137;28;20030;-70
2022/10/14 09:53:53;;;;;;;24.88;15.80;;;16.30;99.80;;;;;;5092661;28;20543;-70
2022/10/14 09:56:30;;;;;;;21.83;15.27;;;16.30;99.80;;;;;;5080468;28;20093;-70
2022/10/14 09:58:57;;;;;;;20.45;13.68;;;16.30;99.80;;;;;;5090135;28;20024;-70
2022/10/14 10:01:39;;;;;;;20.85;13.80;;;16.30;99.80;;;;;;5088607;28;20031;-70
2022/10/14 10:04:33;;;;;;;20.17;13.80;;;16.30;99.80;;;;;;5085913;28;20115;-70
2022/10/14 10:07:04;;;;;;;23.73;14.20;;;16.40;99.80;;;;;;5093567;28;20024;-70
2022/10/14 10:09:30;;;;;;;17.98;13.13;;;16.50;99.70;;;;;;5091552;28;20114;-69
2022/10/14 10:11:56;;;;;;;22.67;13.52;;;16.50;99.70;;;;;;5092183;28;20030;-71
2022/10/14 10:14:23;;;;;;;18.55;13.73;;;16.60;99.60;;;;;;5100953;28;20449;-70
2022/10/14 10:17:09;;;;;;;18.02;13.40;;;16.60;99.40;;;;;;5087116;28;20024;-70
2022/10/14 10:19:42;;;;;;;16.67;13.13;;;16.70;99.50;;;;;;5089313;28;20032;-70
2022/10/14 10:22:23;;;;;;;17.45;12.57;;;16.70;99.40;;;;;;5089972;28;20031;-70
2022/10/14 10:25:12;;;;;;;17.83;12.93;;;16.80;99.50;;;;;;5090598;28;20024;-69
2022/10/14 10:27:45;;;;;;;17.55;13.52;;;16.90;99.60;;;;;;5101008;28;20028;-69
2022/10/14 10:30:16;;;;;;;16.40;11.48;;;16.90;99.50;;;;;;5086703;28;20165;-69
2022/10/14 10:32:50;;;;;;;31.38;15.18;;;17.00;99.50;;;;;;5091368;28;20044;-70
2022/10/14 10:35:33;;;;;;;18.42;12.77;;;17.00;99.40;;;;;;5090746;28;20039;-69
2022/10/14 10:38:19;;;;;;;17.42;12.57;;;17.10;99.30;;;;;;5091542;28;20020;-70
2022/10/14 10:41:02;;;;;;;17.55;12.38;;;17.20;99.30;;;;;;5076556;28;20032;-70
2022/10/14 10:43:56;;;;;;;19.88;13.30;;;17.30;99.20;;;;;;5074065;28;20121;-70
2022/10/14 10:46:55;;;;;;;16.10;12.10;;;17.40;99.30;;;;;;5093066;28;20020;-70
2022/10/14 10:49:47;;;;;;;15.70;11.80;;;17.50;99.20;;;;;;5091205;28;20399;-70
2022/10/14 10:52:29;;;;;;;14.63;11.40;;;17.50;99.00;;;;;;5071551;28;20032;-70
2022/10/14 10:55:24;;;;;;;16.40;11.93;;;17.60;98.80;;;;;;5092267;28;20395;-70
2022/10/14 10:58:16;;;;;;;16.47;11.70;;;17.70;98.80;;;;;;5088999;28;20024;-70
2022/10/14 11:01:39;;;;;;;16.85;12.82;;;17.80;98.70;;;;;;5089201;28;20695;-69
2022/10/14 11:04:34;;;;;;;17.30;11.98;;;17.90;98.80;;;;;;5040160;28;20025;-69
2022/10/14 11:13:45;;;;;;;19.35;13.02;;;18.20;98.50;;;;;;5075991;28;20398;-70
2022/10/14 11:16:43;;;;;;;19.48;12.15;;;18.30;98.50;;;;;;5097971;28;20043;-71
2022/10/14 11:19:49;;;;;;;19.27;11.93;;;18.30;98.40;;;;;;5100509;28;20379;-71
2022/10/14 11:22:37;;;;;;;16.42;11.45;;;18.40;98.40;;;;;;5095270;28;20024;-71
2022/10/14 11:25:37;;;;;;;16.83;12.02;;;18.40;98.30;;;;;;5096243;28;20411;-71
2022/10/14 11:28:21;;;;;;;15.10;11.75;;;18.50;98.30;;;;;;5053778;28;20032;-70
2022/10/14 11:30:56;;;;;;;14.32;11.32;;;18.50;98.00;;;;;;5102250;28;20351;-70
2022/10/14 11:33:27;;;;;;;18.88;11.98;;;18.60;98.00;;;;;;5101000;28;20147;-70
2022/10/14 11:36:20;;;;;;;17.13;11.73;;;18.70;97.90;;;;;;5095817;28;20549;-69
2022/10/14 11:39:21;;;;;;;15.18;11.32;;;18.80;97.90;;;;;;5095274;28;20028;-70
2022/10/14 11:42:04;;;;;;;18.13;12.25;;;18.90;97.90;;;;;;5074374;28;20487;-70
2022/10/14 11:44:37;;;;;;;16.75;11.95;;;18.90;97.70;;;;;;5094036;28;20360;-70
2022/10/14 11:47:26;;;;;;;14.98;11.38;;;18.90;97.50;;;;;;5111700;28;20555;-70
2022/10/14 11:50:22;;;;;;;13.93;10.88;;;18.90;97.40;;;;;;5099338;28;20028;-70
2022/10/14 11:52:52;;;;;;;18.38;11.65;;;18.90;97.20;;;;;;5094208;28;20441;-71
2022/10/14 11:55:23;;;;;;;15.32;11.30;;;18.90;97.00;;;;;;5093785;28;20165;-69
2022/10/14 11:57:57;;;;;;;16.45;10.82;;;19.00;96.80;;;;;;5094843;28;20032;-69
2022/10/14 12:03:25;;;;;;;15.05;10.77;;;18.90;97.10;;;;;;5097991;28;19908;-69
2022/10/14 12:06:17;;;;;;;12.95;10.05;;;18.90;97.00;;;;;;5081248;28;20055;-70
2022/10/14 12:08:59;;;;;;;13.32;10.05;;;18.90;97.00;;;;;;5096845;28;20506;-69
2022/10/14 12:11:34;;;;;;;13.82;10.40;;;18.90;97.00;;;;;;5090491;28;20036;-70
2022/10/14 12:14:13;;;;;;;13.25;9.98;;;18.90;96.90;;;;;;5096138;28;20027;-70
2022/10/14 12:16:41;;;;;;;15.23;9.75;;;18.90;96.60;;;;;;5090793;28;20043;-70
2022/10/14 12:19:10;;;;;;;12.88;9.43;;;19.00;96.70;;;;;;5098161;28;20019;-69
2022/10/14 12:21:55;;;;;;;13.60;9.93;;;18.90;96.60;;;;;;5093500;28;20038;-70
2022/10/14 12:24:35;;;;;;;13.63;9.73;;;19.00;96.60;;;;;;5092846;28;20111;-69
2022/10/14 12:27:04;;;;;;;15.68;9.07;;;19.10;96.70;;;;;;5086389;28;20419;-74
2022/10/14 12:29:42;;;;;;;13.10;9.98;;;19.00;96.60;;;;;;5088909;28;20036;-72
2022/10/14 12:32:19;;;;;;;12.68;9.77;;;19.10;96.60;;;;;;5092718;28;20402;-74
2022/10/14 12:35:46;;;;;;;17.08;10.00;;;19.10;96.60;;;;;;5092243;28;20043;-73
2022/10/14 12:38:12;;;;;;;12.45;8.75;;;19.10;96.40;;;;;;5108088;28;20028;-70
2022/10/14 12:40:39;;;;;;;10.93;8.48;;;19.20;96.30;;;;;;5103618;28;20023;-71
2022/10/14 12:43:28;;;;;;;13.73;8.95;;;19.20;96.20;;;;;;5101396;28;20028;-72
2022/10/14 12:45:59;;;;;;;13.50;8.57;;;19.20;96.20;;;;;;5088204;28;20032;-72
2022/10/14 12:48:30;;;;;;;11.63;8.15;;;19.20;96.10;;;;;;5087354;28;20060;-73
2022/10/14 12:51:17;;;;;;;11.23;7.30;;;19.20;96.00;;;;;;5112501;27;20478;-73
2022/10/14 12:54:10;;;;;;;9.75;7.22;;;19.20;95.90;;;;;;5099549;28;20024;-73
2022/10/14 12:56:53;;;;;;;12.52;7.57;;;19.30;95.90;;;;;;5097267;28;20031;-72
2022/10/14 12:59:21;;;;;;;11.38;7.55;;;19.30;95.80;;;;;;5096112;28;20058;-72